createdAt,value
2023-03-05T00:00:31.302Z,9.30
2023-03-05T00:02:59.486Z,10.70
2023-03-05T00:05:26.893Z,10.40
2023-03-05T00:07:54.054Z,10.70
2023-03-05T00:10:21.221Z,8.90
2023-03-05T00:12:48.611Z,9.03
2023-03-05T00:15:15.920Z,9.10
2023-03-05T00:17:43.262Z,10.63
2023-03-05T00:20:10.868Z,9.67
2023-03-05T00:22:38.218Z,8.37
2023-03-05T00:25:05.701Z,8.77
2023-03-05T00:27:33.085Z,8.50
2023-03-05T00:30:00.459Z,7.50
2023-03-05T00:32:28.668Z,7.87
2023-03-05T00:34:56.101Z,7.57
2023-03-05T00:37:23.454Z,7.10
2023-03-05T00:39:50.833Z,6.97
2023-03-05T00:42:18.100Z,7.83
2023-03-05T00:44:45.446Z,7.33
2023-03-05T00:47:13.546Z,7.10
2023-03-05T00:49:40.897Z,7.23
2023-03-05T00:52:08.198Z,6.30
2023-03-05T00:54:35.719Z,7.13
2023-03-05T00:57:05.760Z,7.03
2023-03-05T00:59:34.165Z,6.83
2023-03-05T01:02:01.632Z,7.00
2023-03-05T01:04:30.159Z,5.93
2023-03-05T01:06:59.780Z,6.40
2023-03-05T01:09:27.421Z,6.07
2023-03-05T01:11:54.809Z,6.43
2023-03-05T01:14:22.165Z,6.30
2023-03-05T01:16:50.587Z,7.10
2023-03-05T01:19:17.980Z,7.03
2023-03-05T01:21:46.537Z,6.40
2023-03-05T01:24:13.989Z,7.10
2023-03-05T01:26:41.376Z,6.10
2023-03-05T01:29:10.803Z,6.40
2023-03-05T01:31:38.152Z,6.40
2023-03-05T01:34:05.534Z,6.70
2023-03-05T01:36:32.816Z,6.30
2023-03-05T01:39:00.255Z,6.40
2023-03-05T01:41:27.719Z,6.43
2023-03-05T01:43:55.252Z,7.03
2023-03-05T01:46:24.379Z,5.67
2023-03-05T01:49:03.891Z,6.43
2023-03-05T01:51:34.172Z,6.00
2023-03-05T01:54:01.898Z,5.90
2023-03-05T01:56:30.012Z,5.40
2023-03-05T01:59:03.827Z,5.93
2023-03-05T02:01:33.077Z,4.93
2023-03-05T02:04:01.535Z,5.90
2023-03-05T02:06:28.941Z,5.57
2023-03-05T02:08:56.778Z,5.77
2023-03-05T02:11:24.307Z,7.13
2023-03-05T02:13:52.442Z,5.30
2023-03-05T02:16:19.878Z,5.63
2023-03-05T02:18:48.282Z,4.70
2023-03-05T02:21:28.328Z,5.57
2023-03-05T02:23:56.166Z,5.07
2023-03-05T02:26:24.631Z,5.07
2023-03-05T02:28:54.802Z,5.90
2023-03-05T02:31:24.715Z,4.80
2023-03-05T02:33:54.012Z,5.40
2023-03-05T02:36:21.769Z,5.50
2023-03-05T02:38:50.649Z,5.60
2023-03-05T02:41:18.290Z,5.80
2023-03-05T02:43:45.791Z,5.03
2023-03-05T02:46:13.167Z,5.47
2023-03-05T02:48:40.629Z,5.70
2023-03-05T02:51:11.448Z,5.10
2023-03-05T02:53:39.015Z,5.77
2023-03-05T02:56:06.988Z,5.70
2023-03-05T02:58:35.882Z,6.07
2023-03-05T03:01:03.278Z,6.50
2023-03-05T03:03:30.589Z,6.70
2023-03-05T03:05:58.314Z,6.57
2023-03-05T03:08:25.648Z,6.30
2023-03-05T03:10:53.063Z,7.17
2023-03-05T03:13:20.491Z,6.63
2023-03-05T03:15:49.834Z,6.40
2023-03-05T03:18:17.736Z,6.60
2023-03-05T03:20:45.046Z,6.73
2023-03-05T03:23:12.232Z,7.20
2023-03-05T03:25:39.393Z,7.37
2023-03-05T03:28:06.666Z,7.23
2023-03-05T03:30:34.012Z,6.80
2023-03-05T03:33:01.356Z,6.23
2023-03-05T03:35:29.256Z,6.50
2023-03-05T03:37:56.667Z,6.57
2023-03-05T03:40:23.962Z,7.37
2023-03-05T03:42:55.859Z,7.40
2023-03-05T03:45:23.377Z,6.80
2023-03-05T03:47:51.163Z,6.97
2023-03-05T03:50:19.146Z,7.60
2023-03-05T03:52:46.451Z,6.80
2023-03-05T03:55:14.532Z,7.20
2023-03-05T03:57:43.570Z,7.30
2023-03-05T04:00:11.825Z,6.77
2023-03-05T04:02:42.744Z,5.93
2023-03-05T04:05:12.163Z,5.60
2023-03-05T04:07:39.570Z,4.93
2023-03-05T04:10:07.532Z,5.00
2023-03-05T04:12:34.928Z,4.70
2023-03-05T04:15:02.276Z,4.43
2023-03-05T04:17:29.711Z,4.50
2023-03-05T04:19:57.136Z,5.50
2023-03-05T04:22:24.468Z,4.57
2023-03-05T04:24:51.950Z,4.60
2023-03-05T04:27:19.566Z,3.70
2023-03-05T04:29:47.882Z,3.60
2023-03-05T04:32:15.223Z,3.90
2023-03-05T04:34:42.556Z,3.80
2023-03-05T04:37:09.941Z,3.57
2023-03-05T04:39:37.258Z,4.30
2023-03-05T04:42:04.784Z,3.33
2023-03-05T04:44:32.054Z,3.33
2023-03-05T04:46:59.241Z,3.30
2023-03-05T04:49:26.591Z,3.60
2023-03-05T04:51:54.838Z,3.33
2023-03-05T04:54:22.640Z,2.73
2023-03-05T04:56:49.864Z,3.67
2023-03-05T04:59:17.996Z,3.03
2023-03-05T05:01:45.604Z,3.40
2023-03-05T05:04:12.823Z,3.40
2023-03-05T05:06:39.944Z,3.10
2023-03-05T05:09:07.081Z,3.00
2023-03-05T05:11:34.749Z,2.80
2023-03-05T05:14:03.450Z,3.20
2023-03-05T05:16:30.790Z,3.20
2023-03-05T05:18:57.980Z,2.80
2023-03-05T05:21:27.309Z,2.67
2023-03-05T05:23:54.484Z,4.00
2023-03-05T05:26:21.640Z,2.73
2023-03-05T05:28:48.983Z,3.00
2023-03-05T05:31:17.332Z,2.70
2023-03-05T05:33:44.898Z,2.90
2023-03-05T05:36:13.929Z,2.37
2023-03-05T05:38:41.562Z,2.97
2023-03-05T05:41:09.802Z,3.10
2023-03-05T05:43:36.993Z,2.67
2023-03-05T05:46:05.462Z,2.13
2023-03-05T05:48:33.978Z,3.33
2023-03-05T05:51:05.241Z,2.90
2023-03-05T05:53:32.376Z,2.60
2023-03-05T05:55:59.617Z,3.47
2023-03-05T05:58:26.795Z,2.30
2023-03-05T06:00:53.919Z,3.10
2023-03-05T06:03:21.125Z,2.57
2023-03-05T06:05:48.777Z,2.83
2023-03-05T06:08:16.073Z,3.07
2023-03-05T06:10:43.320Z,2.77
2023-03-05T06:13:10.610Z,2.83
2023-03-05T06:15:37.812Z,3.23
2023-03-05T06:18:05.036Z,3.13
2023-03-05T06:20:32.141Z,2.87
2023-03-05T06:22:59.302Z,3.00
2023-03-05T06:25:26.454Z,3.63
2023-03-05T06:27:53.661Z,3.37
2023-03-05T06:30:20.949Z,3.50
2023-03-05T06:32:48.100Z,3.30
2023-03-05T06:35:15.507Z,3.40
2023-03-05T06:37:42.667Z,3.90
2023-03-05T06:40:11.336Z,3.60
2023-03-05T06:42:39.711Z,3.73
2023-03-05T06:45:07.204Z,3.57
2023-03-05T06:47:35.015Z,3.80
2023-03-05T06:50:02.178Z,3.40
2023-03-05T06:52:29.847Z,3.73
2023-03-05T06:54:57.021Z,4.23
2023-03-05T06:57:24.202Z,3.90
2023-03-05T06:59:51.385Z,3.43
2023-03-05T07:02:20.009Z,3.67
2023-03-05T07:04:47.157Z,3.33
2023-03-05T07:07:14.304Z,3.43
2023-03-05T07:09:43.997Z,3.67
2023-03-05T07:12:11.787Z,3.20
2023-03-05T07:14:39.353Z,4.00
2023-03-05T07:17:07.374Z,4.70
2023-03-05T07:19:34.878Z,4.23
2023-03-05T07:22:02.035Z,3.80
2023-03-05T07:24:30.952Z,4.13
2023-03-05T07:26:58.081Z,3.87
2023-03-05T07:29:25.683Z,4.30
2023-03-05T07:31:52.874Z,4.97
2023-03-05T07:34:20.458Z,4.23
2023-03-05T07:36:50.692Z,4.70
2023-03-05T07:39:21.222Z,5.50
2023-03-05T07:41:50.800Z,4.97
2023-03-05T07:44:18.606Z,7.43
2023-03-05T07:46:45.733Z,5.80
2023-03-05T07:49:12.865Z,6.70
2023-03-05T07:51:40.774Z,5.90
2023-03-05T07:54:08.109Z,5.33
2023-03-05T07:56:36.277Z,6.40
2023-03-05T07:59:05.210Z,5.73
2023-03-05T08:01:32.713Z,6.30
2023-03-05T08:04:00.932Z,5.67
2023-03-05T08:06:28.136Z,6.13
2023-03-05T08:08:55.334Z,5.70
2023-03-05T08:11:22.535Z,5.80
2023-03-05T08:13:49.769Z,5.93
2023-03-05T08:16:18.720Z,5.23
2023-03-05T08:18:46.323Z,6.70
2023-03-05T08:21:17.942Z,7.27
2023-03-05T08:23:45.149Z,6.63
2023-03-05T08:26:13.833Z,6.47
2023-03-05T08:28:40.987Z,6.17
2023-03-05T08:31:11.937Z,7.10
2023-03-05T08:33:39.484Z,6.87
2023-03-05T08:36:06.854Z,6.07
2023-03-05T08:38:34.001Z,7.10
2023-03-05T08:41:01.142Z,7.80
2023-03-05T08:43:28.329Z,6.97
2023-03-05T08:45:55.496Z,8.10
2023-03-05T08:48:22.692Z,6.57
2023-03-05T08:50:49.874Z,7.10
2023-03-05T08:53:17.097Z,7.27
2023-03-05T08:55:44.386Z,7.13
2023-03-05T08:58:11.561Z,6.93
2023-03-05T09:00:38.777Z,7.00
2023-03-05T09:03:07.236Z,7.00
2023-03-05T09:05:34.444Z,7.20
2023-03-05T09:08:01.556Z,6.90
2023-03-05T09:10:28.676Z,7.70
2023-03-05T09:12:55.784Z,6.70
2023-03-05T09:15:22.938Z,5.97
2023-03-05T09:17:50.138Z,6.90
2023-03-05T09:20:17.365Z,6.90
2023-03-05T09:22:44.548Z,6.60
2023-03-05T09:25:12.228Z,6.80
2023-03-05T09:27:39.460Z,6.33
2023-03-05T09:30:07.234Z,6.43
2023-03-05T09:32:34.393Z,6.57
2023-03-05T09:35:01.531Z,6.70
2023-03-05T09:37:29.333Z,7.43
2023-03-05T09:39:57.203Z,7.23
2023-03-05T09:42:24.375Z,6.60
2023-03-05T09:45:11.767Z,5.50
2023-03-05T09:48:05.378Z,6.70
2023-03-05T09:50:40.638Z,7.07
2023-03-05T09:53:17.085Z,7.40
2023-03-05T09:55:46.384Z,7.50
2023-03-05T09:58:18.590Z,7.03
2023-03-05T10:00:47.778Z,6.57
2023-03-05T10:03:25.921Z,6.53
2023-03-05T10:06:02.721Z,8.40
2023-03-05T10:08:39.360Z,7.80
2023-03-05T10:11:08.760Z,7.13
2023-03-05T10:13:38.761Z,7.50
2023-03-05T10:16:24.250Z,7.63
2023-03-05T10:19:07.108Z,9.00
2023-03-05T10:21:51.057Z,7.00
2023-03-05T10:24:26.030Z,6.90
2023-03-05T10:26:59.389Z,6.67
2023-03-05T10:29:39.069Z,7.17
2023-03-05T10:32:24.909Z,7.70
2023-03-05T10:35:01.447Z,6.67
2023-03-05T10:37:34.862Z,7.00
2023-03-05T10:40:01.952Z,7.40
2023-03-05T10:42:48.275Z,6.33
2023-03-05T10:45:26.645Z,6.40
2023-03-05T10:48:16.846Z,6.20
2023-03-05T10:50:46.959Z,5.80
2023-03-05T10:53:29.246Z,7.37
2023-03-05T10:55:56.512Z,6.50
2023-03-05T10:58:24.898Z,5.67
2023-03-05T11:01:04.082Z,6.43
2023-03-05T11:03:49.054Z,7.57
2023-03-05T11:06:17.690Z,6.80
2023-03-05T11:08:44.838Z,5.90
2023-03-05T11:11:13.593Z,6.43
2023-03-05T11:13:57.691Z,8.73
2023-03-05T11:16:32.573Z,6.17
2023-03-05T11:19:18.536Z,5.83
2023-03-05T11:21:48.412Z,6.20
2023-03-05T11:24:16.943Z,7.60
2023-03-05T11:26:48.631Z,7.37
2023-03-05T11:29:35.152Z,8.17
2023-03-05T11:32:22.103Z,7.87
2023-03-05T11:34:49.350Z,9.47
2023-03-05T11:37:27.567Z,7.13
2023-03-05T11:40:13.796Z,8.10
2023-03-05T11:42:41.546Z,7.87
2023-03-05T11:45:15.560Z,7.37
2023-03-05T11:47:50.859Z,6.23
2023-03-05T11:50:21.030Z,7.07
2023-03-05T11:53:09.153Z,7.00
2023-03-05T11:55:47.066Z,6.50
2023-03-05T11:58:20.681Z,6.47
2023-03-05T12:00:48.216Z,7.77
2023-03-05T12:03:18.002Z,6.87
2023-03-05T12:05:47.299Z,7.00
2023-03-05T12:08:16.911Z,6.33
2023-03-05T12:10:44.417Z,6.30
2023-03-05T12:13:15.554Z,9.20
2023-03-05T12:15:49.215Z,6.30
2023-03-05T12:18:25.345Z,7.30
2023-03-05T12:21:11.416Z,7.73
2023-03-05T12:23:46.389Z,7.37
2023-03-05T12:26:13.739Z,5.80
2023-03-05T12:28:53.303Z,6.30
2023-03-05T12:31:37.781Z,6.43
2023-03-05T12:34:23.932Z,6.10
2023-03-05T12:36:51.148Z,6.37
2023-03-05T12:39:38.106Z,5.73
2023-03-05T12:42:25.418Z,6.23
2023-03-05T12:45:16.837Z,6.30
2023-03-05T12:47:44.727Z,7.50
2023-03-05T12:50:27.510Z,7.60
2023-03-05T12:52:54.702Z,6.07
2023-03-05T12:55:29.358Z,6.10
2023-03-05T12:57:59.476Z,6.77
2023-03-05T13:00:28.679Z,6.20
2023-03-05T13:02:58.584Z,6.00
2023-03-05T13:05:30.836Z,6.70
2023-03-05T13:08:17.019Z,6.33
2023-03-05T13:10:51.982Z,5.10
2023-03-05T13:13:20.657Z,5.47
2023-03-05T13:15:51.330Z,5.20
2023-03-05T13:18:23.634Z,6.07
2023-03-05T13:21:02.133Z,6.10
2023-03-05T13:23:29.399Z,4.93
2023-03-05T13:26:00.382Z,6.13
2023-03-05T13:28:27.618Z,5.87
2023-03-05T13:30:57.115Z,5.37
2023-03-05T13:33:29.946Z,4.00
2023-03-05T13:35:57.206Z,5.63
2023-03-05T13:38:47.865Z,4.67
2023-03-05T13:41:15.019Z,5.10
2023-03-05T13:43:47.068Z,5.03
2023-03-05T13:46:15.051Z,4.87
2023-03-05T13:48:42.297Z,4.17
2023-03-05T13:51:12.063Z,4.33
2023-03-05T13:53:39.371Z,5.20
2023-03-05T13:56:13.341Z,4.30
2023-03-05T13:58:54.126Z,4.43
2023-03-05T14:01:28.096Z,4.10
2023-03-05T14:03:57.268Z,4.63
2023-03-05T14:06:28.132Z,4.40
2023-03-05T14:09:04.702Z,4.70
2023-03-05T14:11:31.849Z,4.07
2023-03-05T14:14:03.446Z,4.40
2023-03-05T14:16:33.547Z,3.67
2023-03-05T14:19:02.151Z,3.23
2023-03-05T14:21:49.509Z,3.33
2023-03-05T14:24:28.513Z,4.10
2023-03-05T14:26:57.051Z,4.83
2023-03-05T14:29:25.490Z,4.13
2023-03-05T14:31:55.116Z,3.40
2023-03-05T14:34:28.496Z,3.80
2023-03-05T14:36:57.212Z,4.20
2023-03-05T14:39:28.774Z,3.13
2023-03-05T14:41:55.969Z,4.10
2023-03-05T14:44:25.746Z,3.30
2023-03-05T14:46:52.949Z,3.80
2023-03-05T14:49:20.179Z,3.60
2023-03-05T14:51:47.730Z,3.77
2023-03-05T14:54:26.168Z,3.43
2023-03-05T14:56:53.435Z,3.17
2023-03-05T14:59:23.433Z,3.60
2023-03-05T15:01:50.816Z,3.90
2023-03-05T15:04:19.744Z,3.73
2023-03-05T15:06:50.583Z,3.40
2023-03-05T15:09:19.594Z,4.57
2023-03-05T15:11:47.734Z,4.27
2023-03-05T15:14:15.967Z,3.77
2023-03-05T15:16:44.563Z,3.40
2023-03-05T15:19:13.388Z,3.43
2023-03-05T15:21:40.740Z,4.03
2023-03-05T15:24:11.477Z,3.30
2023-03-05T15:26:41.340Z,4.13
2023-03-05T15:29:08.522Z,3.43
2023-03-05T15:31:38.654Z,3.80
2023-03-05T15:34:06.255Z,5.60
2023-03-05T15:36:33.900Z,3.90
2023-03-05T15:39:01.077Z,4.73
2023-03-05T15:41:28.343Z,3.80
2023-03-05T15:43:55.785Z,4.33
2023-03-05T15:46:22.939Z,3.70
2023-03-05T15:48:50.608Z,4.70
2023-03-05T15:51:18.115Z,4.53
2023-03-05T15:53:46.261Z,4.43
2023-03-05T15:56:19.593Z,4.00
2023-03-05T15:58:49.086Z,4.00
2023-03-05T16:01:19.085Z,4.50
2023-03-05T16:03:47.507Z,4.23
2023-03-05T16:06:15.869Z,4.50
2023-03-05T16:08:46.583Z,4.67
2023-03-05T16:11:15.124Z,4.17
2023-03-05T16:13:42.679Z,5.13
2023-03-05T16:16:10.910Z,3.80
2023-03-05T16:18:40.617Z,3.33
2023-03-05T16:21:07.937Z,4.53
2023-03-05T16:23:35.148Z,5.00
2023-03-05T16:26:02.302Z,4.33
2023-03-05T16:28:29.475Z,4.27
2023-03-05T16:30:57.717Z,4.77
2023-03-05T16:33:25.522Z,4.37
2023-03-05T16:36:12.671Z,4.70
2023-03-05T16:38:39.935Z,4.53
2023-03-05T16:41:08.748Z,4.50
2023-03-05T16:43:36.183Z,4.83
2023-03-05T16:46:03.485Z,3.63
2023-03-05T16:48:30.845Z,4.73
2023-03-05T16:50:58.486Z,4.30
2023-03-05T16:53:25.766Z,4.50
2023-03-05T16:55:53.246Z,4.73
2023-03-05T16:58:20.447Z,5.00
2023-03-05T17:00:48.771Z,5.43
2023-03-05T17:03:16.636Z,5.20
2023-03-05T17:05:43.815Z,4.20
2023-03-05T17:08:10.977Z,4.77
2023-03-05T17:10:38.709Z,5.40
2023-03-05T17:13:06.552Z,4.93
2023-03-05T17:15:33.994Z,5.40
2023-03-05T17:18:01.175Z,5.90
2023-03-05T17:20:28.499Z,5.13
2023-03-05T17:22:55.661Z,4.83
2023-03-05T17:25:22.814Z,4.87
2023-03-05T17:27:50.093Z,4.80
2023-03-05T17:30:17.441Z,4.77
2023-03-05T17:32:44.765Z,10.67
2023-03-05T17:35:22.479Z,5.10
2023-03-05T17:37:50.042Z,4.93
2023-03-05T17:40:17.436Z,4.83
2023-03-05T17:42:44.680Z,4.67
2023-03-05T17:45:12.044Z,4.77
2023-03-05T17:47:39.267Z,5.13
2023-03-05T17:50:07.415Z,4.57
2023-03-05T17:52:38.195Z,5.53
2023-03-05T17:55:09.818Z,5.47
2023-03-05T17:57:37.835Z,4.97
2023-03-05T18:00:06.127Z,4.70
2023-03-05T18:02:39.449Z,5.37
2023-03-05T18:05:06.952Z,5.50
2023-03-05T18:07:34.397Z,5.33
2023-03-05T18:10:03.161Z,5.90
2023-03-05T18:12:30.411Z,5.40
2023-03-05T18:14:57.659Z,5.17
2023-03-05T18:17:24.826Z,5.40
2023-03-05T18:19:52.306Z,5.23
2023-03-05T18:22:19.545Z,6.17
2023-03-05T18:24:46.724Z,5.63
2023-03-05T18:27:15.331Z,5.27
2023-03-05T18:29:42.511Z,4.80
2023-03-05T18:32:09.799Z,5.27
2023-03-05T18:34:37.116Z,4.87
2023-03-05T18:37:04.369Z,5.77
2023-03-05T18:39:35.547Z,5.93
2023-03-05T18:42:02.691Z,7.57
2023-03-05T18:44:29.917Z,5.13
2023-03-05T18:46:57.928Z,5.60
2023-03-05T18:49:27.186Z,5.70
2023-03-05T18:51:54.334Z,6.20
2023-03-05T18:54:21.480Z,5.87
2023-03-05T18:56:48.646Z,5.80
2023-03-05T18:59:15.766Z,5.27
2023-03-05T19:01:44.302Z,5.40
2023-03-05T19:04:11.574Z,6.30
2023-03-05T19:06:39.048Z,5.37
2023-03-05T19:09:16.864Z,5.90
2023-03-05T19:11:44.051Z,6.00
2023-03-05T19:14:12.347Z,5.53
2023-03-05T19:16:43.853Z,5.80
2023-03-05T19:19:22.466Z,6.70
2023-03-05T19:21:52.943Z,6.70
2023-03-05T19:24:20.969Z,6.37
2023-03-05T19:26:48.399Z,6.40
2023-03-05T19:29:15.617Z,8.10
2023-03-05T19:31:43.094Z,6.07
2023-03-05T19:34:10.532Z,7.27
2023-03-05T19:36:37.722Z,6.97
2023-03-05T19:39:08.176Z,7.00
2023-03-05T19:41:35.988Z,7.50
2023-03-05T19:44:03.774Z,6.73
2023-03-05T19:46:31.061Z,6.30
2023-03-05T19:48:58.574Z,8.07
2023-03-05T19:51:26.753Z,7.77
2023-03-05T19:53:55.246Z,7.67
2023-03-05T19:56:23.027Z,7.50
2023-03-05T19:58:52.115Z,7.17
2023-03-05T20:01:21.086Z,7.77
2023-03-05T20:03:49.474Z,7.13
2023-03-05T20:06:17.654Z,7.43
2023-03-05T20:08:45.382Z,6.90
2023-03-05T20:11:13.574Z,7.33
2023-03-05T20:13:41.180Z,6.83
2023-03-05T20:16:25.218Z,6.70
2023-03-05T20:18:54.654Z,7.20
2023-03-05T20:21:26.503Z,7.63
2023-03-05T20:23:54.874Z,6.83
2023-03-05T20:26:22.199Z,6.33
2023-03-05T20:28:49.933Z,7.10
2023-03-05T20:31:21.845Z,7.00
2023-03-05T20:33:49.255Z,7.43
2023-03-05T20:36:16.412Z,7.00
2023-03-05T20:38:45.525Z,6.20
2023-03-05T20:41:14.945Z,7.13
2023-03-05T20:43:44.734Z,7.57
2023-03-05T20:46:15.589Z,6.80
2023-03-05T20:48:43.919Z,6.57
2023-03-05T20:51:12.273Z,6.90
2023-03-05T20:53:39.464Z,6.90
2023-03-05T20:56:07.058Z,7.00
2023-03-05T20:58:34.201Z,6.53
2023-03-05T21:01:01.364Z,6.67
2023-03-05T21:03:28.705Z,7.70
2023-03-05T21:05:57.054Z,6.97
2023-03-05T21:08:24.759Z,6.87
2023-03-05T21:10:51.990Z,6.47
2023-03-05T21:13:19.417Z,7.67
2023-03-05T21:15:46.935Z,6.87
2023-03-05T21:18:14.045Z,7.20
2023-03-05T21:20:41.216Z,7.57
2023-03-05T21:23:08.850Z,7.13
2023-03-05T21:25:36.008Z,7.70
2023-03-05T21:28:11.547Z,7.43
2023-03-05T21:30:40.331Z,7.43
2023-03-05T21:33:08.832Z,7.20
2023-03-05T21:35:36.933Z,6.73
2023-03-05T21:38:04.749Z,8.00
2023-03-05T21:40:32.671Z,7.30
2023-03-05T21:43:00.817Z,7.80
2023-03-05T21:45:28.964Z,7.30
2023-03-05T21:47:56.277Z,7.87
2023-03-05T21:50:24.392Z,6.80
2023-03-05T21:52:51.824Z,7.40
2023-03-05T21:55:22.720Z,7.43
2023-03-05T21:57:49.972Z,7.30
2023-03-05T22:00:22.479Z,7.80
2023-03-05T22:02:49.687Z,7.57
2023-03-05T22:05:16.826Z,8.00
2023-03-05T22:07:44.160Z,7.10
2023-03-05T22:10:12.745Z,8.13
2023-03-05T22:12:52.992Z,7.57
2023-03-05T22:15:20.682Z,6.17
2023-03-05T22:17:47.859Z,7.73
2023-03-05T22:20:15.547Z,8.13
2023-03-05T22:22:42.767Z,7.13
2023-03-05T22:25:12.362Z,7.30
2023-03-05T22:27:39.795Z,8.13
2023-03-05T22:30:07.412Z,7.83
2023-03-05T22:32:35.432Z,7.93
2023-03-05T22:35:02.978Z,7.40
2023-03-05T22:37:33.276Z,8.47
2023-03-05T22:40:00.485Z,8.13
2023-03-05T22:42:27.701Z,7.93
2023-03-05T22:44:58.484Z,7.50
2023-03-05T22:47:27.075Z,6.47
2023-03-05T22:49:54.949Z,6.80
2023-03-05T22:52:22.127Z,8.20
2023-03-05T22:54:49.261Z,8.00
2023-03-05T22:57:16.449Z,8.30
2023-03-05T22:59:43.724Z,7.30
2023-03-05T23:02:11.278Z,7.43
2023-03-05T23:04:49.263Z,9.40
2023-03-05T23:07:17.600Z,8.03
2023-03-05T23:09:45.940Z,7.37
2023-03-05T23:12:15.917Z,6.40
2023-03-05T23:14:44.865Z,7.20
2023-03-05T23:17:12.003Z,7.07
2023-03-05T23:19:39.921Z,5.70
2023-03-05T23:22:08.065Z,7.50
2023-03-05T23:24:35.335Z,7.63
2023-03-05T23:27:05.349Z,7.03
2023-03-05T23:29:47.023Z,6.30
2023-03-05T23:32:14.295Z,6.70
2023-03-05T23:34:41.428Z,7.20
2023-03-05T23:37:08.547Z,5.90
2023-03-05T23:39:35.670Z,6.77
2023-03-05T23:42:02.786Z,8.80
2023-03-05T23:44:29.938Z,6.53
2023-03-05T23:46:57.042Z,7.50
2023-03-05T23:49:24.195Z,6.40
2023-03-05T23:51:52.373Z,7.30
2023-03-05T23:54:20.070Z,7.50
2023-03-05T23:56:47.217Z,7.63
2023-03-05T23:59:14.401Z,7.10
